Time;durP1;ratioP1;P1;durP2;ratioP2;P2;SDS_P1;SDS_P2;PMS_P1;PMS_P2;Temp;Humidity;BMP_temperature;BMP_pressure;BME280_temperature;BME280_humidity;BME280_pressure;Samples;Min_cycle;Max_cycle;Signal;HPM_P1;HPM_P2
2023/01/17 00:01:42;;;;;;;4.30;1.17;;;;;;;;;;5120430;27;20047;-73
2023/01/17 00:09:51;;;;;;;3.30;1.25;;;;;;;;;;5096830;28;20052;-73
2023/01/17 00:12:19;;;;;;;3.72;1.30;;;;;;;;;;5096790;28;20040;-73
2023/01/17 00:14:45;;;;;;;6.25;1.40;;;;;;;;;;5102386;28;20042;-73
2023/01/17 00:17:11;;;;;;;5.43;1.50;;;;;;;;;;5113534;28;20099;-73
2023/01/17 01:34:35;;;;;;;3.38;0.50;;;;;;;;;;5097245;28;20059;-73
2023/01/17 01:37:01;;;;;;;6.15;0.60;;;;;;;;;;5099514;28;20405;-74
2023/01/17 01:39:27;;;;;;;2.13;0.45;;;;;;;;;;5102933;28;20072;-74
2023/01/17 01:41:53;;;;;;;3.47;0.50;;;;;;;;;;5102082;28;20043;-73
2023/01/17 01:44:38;;;;;;;2.13;0.43;;;;;;;;;;5098255;28;20044;-74
2023/01/17 01:47:04;;;;;;;2.78;0.45;;;;;;;;;;5102594;28;20046;-74
2023/01/17 01:49:30;;;;;;;2.83;0.47;;;;;;;;;;5103419;28;20489;-74
2023/01/17 01:51:59;;;;;;;1.48;0.47;;;;;;;;;;5104145;28;20039;-74
2023/01/17 01:54:29;;;;;;;4.22;0.70;;;;;;;;;;5095774;28;20058;-73
2023/01/17 01:56:57;;;;;;;5.97;0.60;;;;;;;;;;5103193;28;20443;-73
2023/01/17 01:59:23;;;;;;;6.80;1.50;;;;;;;;;;5099900;28;20493;-73
2023/01/17 02:01:50;;;;;;;7.60;0.88;;;;;;;;;;5102110;27;20138;-73
2023/01/17 02:04:17;;;;;;;4.40;0.60;;;;;;;;;;5101480;28;20064;-73
2023/01/17 02:06:45;;;;;;;7.25;0.82;;;;;;;;;;5109302;28;20051;-73
2023/01/17 02:09:13;;;;;;;4.60;0.82;;;;;;;;;;5097350;28;20054;-74
2023/01/17 02:11:40;;;;;;;7.40;1.25;;;;;;;;;;5115708;28;20402;-73
2023/01/17 02:14:06;;;;;;;6.75;0.80;;;;;;;;;;5108631;27;20048;-73
2023/01/17 02:16:49;;;;;;;5.15;0.77;;;;;;;;;;5100547;28;20447;-74
2023/01/17 02:19:15;;;;;;;6.20;0.80;;;;;;;;;;5100899;28;20036;-74
2023/01/17 02:21:49;;;;;;;8.65;0.60;;;;;;;;;;5100294;28;20047;-73
2023/01/17 02:24:40;;;;;;;8.90;0.98;;;;;;;;;;5101475;28;20047;-73
2023/01/17 02:27:07;;;;;;;9.52;1.00;;;;;;;;;;5104756;28;20039;-74
2023/01/17 02:29:52;;;;;;;6.65;0.93;;;;;;;;;;5106033;28;20097;-74
2023/01/17 02:32:35;;;;;;;6.03;0.80;;;;;;;;;;5095401;27;20059;-74
2023/01/17 02:35:07;;;;;;;2.47;0.50;;;;;;;;;;5096149;28;20091;-74
2023/01/17 02:37:33;;;;;;;6.22;0.85;;;;;;;;;;5100383;28;20089;-73
2023/01/17 02:40:05;;;;;;;5.35;0.93;;;;;;;;;;5102105;28;21611;-73
2023/01/17 02:42:33;;;;;;;6.32;0.95;;;;;;;;;;5100828;27;20109;-74
2023/01/17 02:45:01;;;;;;;5.07;0.65;;;;;;;;;;5097244;27;20093;-73
2023/01/17 02:47:29;;;;;;;6.60;0.88;;;;;;;;;;5101479;28;20447;-73
2023/01/17 02:49:57;;;;;;;6.20;1.00;;;;;;;;;;5102430;28;20040;-73
2023/01/17 02:52:38;;;;;;;8.52;1.10;;;;;;;;;;5098555;28;20052;-73
2023/01/17 02:55:13;;;;;;;6.50;1.30;;;;;;;;;;5099599;28;20040;-73
2023/01/17 02:57:54;;;;;;;7.57;1.00;;;;;;;;;;5099553;28;21511;-74
2023/01/17 03:00:20;;;;;;;4.70;0.68;;;;;;;;;;5098670;28;20378;-74
2023/01/17 03:03:02;;;;;;;6.03;0.88;;;;;;;;;;5100668;28;20173;-73
2023/01/17 03:05:40;;;;;;;7.10;0.90;;;;;;;;;;5101772;28;21807;-73
2023/01/17 03:08:06;;;;;;;3.90;0.73;;;;;;;;;;5099308;28;20126;-71
2023/01/17 03:10:33;;;;;;;6.82;1.00;;;;;;;;;;5101362;28;20036;-73
2023/01/17 03:13:00;;;;;;;8.50;1.15;;;;;;;;;;5100120;27;20047;-73
2023/01/17 03:15:26;;;;;;;6.93;0.98;;;;;;;;;;5102842;28;20044;-73
2023/01/17 03:17:54;;;;;;;9.93;1.08;;;;;;;;;;5095956;28;20398;-73
2023/01/17 03:20:20;;;;;;;6.32;0.90;;;;;;;;;;5108721;27;20482;-73
2023/01/17 03:22:46;;;;;;;5.38;1.30;;;;;;;;;;5111793;28;20093;-73
2023/01/17 03:25:12;;;;;;;9.88;0.90;;;;;;;;;;5111295;28;20043;-73
2023/01/17 03:27:38;;;;;;;9.13;1.10;;;;;;;;;;5107017;28;20136;-73
2023/01/17 03:30:05;;;;;;;8.90;1.00;;;;;;;;;;5105553;27;20375;-73
2023/01/17 03:32:31;;;;;;;6.57;0.80;;;;;;;;;;5093331;28;20115;-73
2023/01/17 03:34:57;;;;;;;7.20;0.80;;;;;;;;;;5093095;28;20040;-73
2023/01/17 03:37:23;;;;;;;7.13;1.10;;;;;;;;;;5107311;28;20050;-73
2023/01/17 03:39:49;;;;;;;10.13;1.20;;;;;;;;;;5108238;28;20051;-73
2023/01/17 03:42:15;;;;;;;3.63;0.60;;;;;;;;;;5111496;27;20393;-73
2023/01/17 03:44:41;;;;;;;5.70;0.88;;;;;;;;;;5094332;28;20047;-73
2023/01/17 03:47:10;;;;;;;4.80;0.70;;;;;;;;;;5111005;28;20070;-73
2023/01/17 03:49:37;;;;;;;9.15;0.90;;;;;;;;;;5096592;28;20612;-74
2023/01/17 03:52:03;;;;;;;6.20;1.05;;;;;;;;;;5104371;28;20040;-74
2023/01/17 03:54:29;;;;;;;6.72;0.80;;;;;;;;;;5112935;27;20108;-73
2023/01/17 03:56:55;;;;;;;6.15;0.90;;;;;;;;;;5111336;28;20047;-73
2023/01/17 03:59:21;;;;;;;7.80;0.95;;;;;;;;;;5112760;28;20039;-73
2023/01/17 04:01:47;;;;;;;7.65;0.70;;;;;;;;;;5111784;28;20104;-73
2023/01/17 04:04:14;;;;;;;7.07;0.90;;;;;;;;;;5110144;28;20048;-73
2023/01/17 04:06:40;;;;;;;3.75;0.70;;;;;;;;;;5111925;28;20145;-73
2023/01/17 04:09:06;;;;;;;7.40;1.27;;;;;;;;;;5111868;28;20400;-74
2023/01/17 04:11:32;;;;;;;5.85;0.90;;;;;;;;;;5099292;28;20039;-73
2023/01/17 04:13:58;;;;;;;5.10;0.90;;;;;;;;;;5107129;28;20080;-73
2023/01/17 04:16:27;;;;;;;5.22;0.73;;;;;;;;;;5110187;28;20040;-73
2023/01/17 04:18:54;;;;;;;9.35;0.90;;;;;;;;;;5100881;28;20036;-74
2023/01/17 04:21:20;;;;;;;7.38;0.80;;;;;;;;;;5099260;28;20097;-73
2023/01/17 04:23:46;;;;;;;9.25;1.10;;;;;;;;;;5094289;28;20040;-73
2023/01/17 04:26:12;;;;;;;7.25;0.93;;;;;;;;;;5093727;28;20542;-73
2023/01/17 04:28:38;;;;;;;13.55;1.05;;;;;;;;;;5099156;28;20044;-73
2023/01/17 04:31:05;;;;;;;7.30;0.80;;;;;;;;;;5097852;28;20046;-73
2023/01/17 04:33:31;;;;;;;11.18;1.08;;;;;;;;;;5100317;28;20038;-73
2023/01/17 04:35:57;;;;;;;8.43;0.90;;;;;;;;;;5104499;28;20056;-72
2023/01/17 04:38:23;;;;;;;6.90;0.98;;;;;;;;;;5095439;28;20558;-71
2023/01/17 04:40:50;;;;;;;7.03;1.10;;;;;;;;;;5097214;28;20048;-73
2023/01/17 04:43:17;;;;;;;9.20;0.77;;;;;;;;;;5095231;28;20052;-73
2023/01/17 04:45:43;;;;;;;6.78;0.90;;;;;;;;;;5096815;28;20043;-72
2023/01/17 04:48:11;;;;;;;7.05;0.98;;;;;;;;;;5102947;28;20040;-70
2023/01/17 04:50:38;;;;;;;8.30;1.08;;;;;;;;;;5093500;28;20051;-71
2023/01/17 04:53:04;;;;;;;7.63;0.82;;;;;;;;;;5100743;28;20500;-72
2023/01/17 04:55:30;;;;;;;6.95;0.77;;;;;;;;;;5097523;28;20509;-72
2023/01/17 04:57:56;;;;;;;6.88;0.95;;;;;;;;;;5098483;28;20036;-72
2023/01/17 05:00:22;;;;;;;7.60;1.10;;;;;;;;;;5085375;28;20051;-73
2023/01/17 05:02:49;;;;;;;8.77;0.90;;;;;;;;;;5101356;28;20048;-73
2023/01/17 05:05:15;;;;;;;5.95;1.02;;;;;;;;;;5100595;28;20052;-73
2023/01/17 05:07:41;;;;;;;10.30;1.20;;;;;;;;;;5098678;27;20058;-74
2023/01/17 05:10:07;;;;;;;6.18;0.70;;;;;;;;;;5103152;28;20505;-73
2023/01/17 05:12:33;;;;;;;9.75;0.82;;;;;;;;;;5103635;27;20043;-73
2023/01/17 05:15:00;;;;;;;9.10;1.45;;;;;;;;;;5103279;28;20040;-76
2023/01/17 05:17:26;;;;;;;11.15;1.30;;;;;;;;;;5101722;28;20054;-75
2023/01/17 05:19:52;;;;;;;8.43;1.13;;;;;;;;;;5101360;27;20069;-76
2023/01/17 05:22:18;;;;;;;5.72;0.98;;;;;;;;;;5103233;28;20469;-73
2023/01/17 05:24:45;;;;;;;8.80;1.33;;;;;;;;;;5097933;28;20529;-73
2023/01/17 05:27:11;;;;;;;8.07;1.05;;;;;;;;;;5100126;28;20040;-71
2023/01/17 05:29:38;;;;;;;8.68;1.20;;;;;;;;;;5102259;28;20041;-73
2023/01/17 05:32:04;;;;;;;8.63;1.17;;;;;;;;;;5101179;28;20032;-73
2023/01/17 05:34:30;;;;;;;8.55;1.20;;;;;;;;;;5101648;27;20063;-73
2023/01/17 05:36:56;;;;;;;6.93;0.90;;;;;;;;;;5101999;28;20222;-73
2023/01/17 05:39:22;;;;;;;6.10;1.00;;;;;;;;;;5103608;28;20695;-73
2023/01/17 05:41:49;;;;;;;6.85;1.27;;;;;;;;;;5099555;28;20048;-73
2023/01/17 05:44:15;;;;;;;11.80;1.20;;;;;;;;;;5101455;28;20046;-73
2023/01/17 05:46:41;;;;;;;7.47;1.15;;;;;;;;;;5098524;28;20114;-72
2023/01/17 05:49:07;;;;;;;7.78;1.23;;;;;;;;;;5102324;28;20032;-73
2023/01/17 05:51:36;;;;;;;6.53;0.90;;;;;;;;;;5100706;28;20051;-73
2023/01/17 05:54:03;;;;;;;8.63;1.20;;;;;;;;;;5098500;28;20119;-73
2023/01/17 05:56:29;;;;;;;4.57;0.65;;;;;;;;;;5101240;28;20047;-72
2023/01/17 05:58:55;;;;;;;7.72;0.90;;;;;;;;;;5103994;27;20181;-73
2023/01/17 06:01:21;;;;;;;5.45;1.00;;;;;;;;;;5099726;28;21469;-73
2023/01/17 06:03:47;;;;;;;6.88;1.02;;;;;;;;;;5100378;28;20056;-73
2023/01/17 06:06:13;;;;;;;5.97;0.95;;;;;;;;;;5104182;28;20501;-71
2023/01/17 06:08:39;;;;;;;8.60;1.10;;;;;;;;;;5100717;28;20035;-72
2023/01/17 06:11:05;;;;;;;8.63;1.70;;;;;;;;;;5097520;28;20059;-73
2023/01/17 06:13:31;;;;;;;8.77;1.42;;;;;;;;;;5098253;28;20036;-73
2023/01/17 06:16:01;;;;;;;9.90;1.30;;;;;;;;;;5102211;28;20051;-71
2023/01/17 06:18:28;;;;;;;8.95;1.15;;;;;;;;;;5101649;27;20163;-73
2023/01/17 06:20:54;;;;;;;9.68;1.25;;;;;;;;;;5100796;28;20131;-73
2023/01/17 06:23:21;;;;;;;9.40;1.10;;;;;;;;;;5099797;28;20115;-73
2023/01/17 06:25:47;;;;;;;6.82;1.08;;;;;;;;;;5095577;28;20047;-73
2023/01/17 06:28:15;;;;;;;6.60;1.00;;;;;;;;;;5111316;28;20062;-73
2023/01/17 06:30:42;;;;;;;9.30;1.55;;;;;;;;;;5095782;28;20079;-73
2023/01/17 06:33:09;;;;;;;9.50;1.55;;;;;;;;;;5094813;27;20043;-72
2023/01/17 06:35:39;;;;;;;8.15;1.00;;;;;;;;;;5097325;28;20065;-73
2023/01/17 06:38:06;;;;;;;8.10;1.42;;;;;;;;;;5101280;27;20035;-73
2023/01/17 06:40:32;;;;;;;13.90;2.40;;;;;;;;;;5097023;28;20036;-73
2023/01/17 06:43:02;;;;;;;7.93;1.48;;;;;;;;;;5097090;28;20046;-73
2023/01/17 06:45:29;;;;;;;5.68;1.00;;;;;;;;;;5095301;28;20044;-73
2023/01/17 06:47:55;;;;;;;6.30;1.13;;;;;;;;;;5097717;28;20032;-72
2023/01/17 06:50:21;;;;;;;8.30;1.00;;;;;;;;;;5098386;28;20044;-72
2023/01/17 06:52:57;;;;;;;7.10;1.27;;;;;;;;;;5094272;28;20099;-73
2023/01/17 06:55:23;;;;;;;12.13;1.45;;;;;;;;;;5099607;28;20055;-72
2023/01/17 06:57:49;;;;;;;7.95;1.10;;;;;;;;;;5096636;28;20504;-74
2023/01/17 07:00:16;;;;;;;8.13;1.10;;;;;;;;;;5099320;28;20512;-74
2023/01/17 07:02:46;;;;;;;6.75;1.08;;;;;;;;;;5100859;28;20093;-72
2023/01/17 07:05:12;;;;;;;7.57;1.00;;;;;;;;;;5099785;27;20134;-72
2023/01/17 07:07:38;;;;;;;8.15;1.10;;;;;;;;;;5099723;28;20039;-72
2023/01/17 07:10:04;;;;;;;7.40;0.82;;;;;;;;;;5099081;28;20090;-72
2023/01/17 07:12:31;;;;;;;6.18;0.93;;;;;;;;;;5097468;28;20044;-70
2023/01/17 07:14:57;;;;;;;8.18;1.30;;;;;;;;;;5098954;28;20040;-72
2023/01/17 07:17:23;;;;;;;5.53;1.10;;;;;;;;;;5104269;28;20097;-72
2023/01/17 07:19:49;;;;;;;5.55;1.05;;;;;;;;;;5105328;28;20051;-72
2023/01/17 07:22:15;;;;;;;7.28;1.20;;;;;;;;;;5103456;28;20048;-75
2023/01/17 07:24:41;;;;;;;7.90;1.35;;;;;;;;;;5098240;28;20043;-73
2023/01/17 07:27:07;;;;;;;11.65;1.33;;;;;;;;;;5098023;28;20110;-73
2023/01/17 07:29:33;;;;;;;10.15;1.48;;;;;;;;;;5108839;28;20047;-75
2023/01/17 07:31:59;;;;;;;11.15;1.48;;;;;;;;;;5111538;28;20044;-73
2023/01/17 07:34:25;;;;;;;6.25;1.38;;;;;;;;;;5100023;28;20063;-73
2023/01/17 07:36:53;;;;;;;10.70;2.28;;;;;;;;;;5105921;28;20485;-74
2023/01/17 07:39:19;;;;;;;8.32;2.05;;;;;;;;;;5113139;28;20047;-73
2023/01/17 07:41:51;;;;;;;6.50;2.00;;;;;;;;;;5107915;28;20051;-74
2023/01/17 07:44:17;;;;;;;10.63;2.08;;;;;;;;;;5110703;28;20546;-73
2023/01/17 07:46:43;;;;;;;8.27;1.33;;;;;;;;;;5100972;27;20070;-73
2023/01/17 07:49:09;;;;;;;9.73;1.50;;;;;;;;;;5106035;28;20044;-73
2023/01/17 07:51:35;;;;;;;6.68;1.05;;;;;;;;;;5107203;28;20055;-73
2023/01/17 07:54:01;;;;;;;8.80;1.55;;;;;;;;;;5112892;28;20062;-73
2023/01/17 07:56:28;;;;;;;9.68;1.50;;;;;;;;;;5113014;28;20044;-72
2023/01/17 07:58:54;;;;;;;10.18;1.52;;;;;;;;;;5092787;28;20036;-73
2023/01/17 08:01:20;;;;;;;6.65;1.50;;;;;;;;;;5098666;28;20056;-73
2023/01/17 08:03:49;;;;;;;10.63;1.88;;;;;;;;;;5104097;28;20564;-73
2023/01/17 08:06:19;;;;;;;8.25;2.00;;;;;;;;;;5101356;28;20067;-73
2023/01/17 08:08:46;;;;;;;13.15;1.80;;;;;;;;;;5092467;28;20088;-73
2023/01/17 08:11:12;;;;;;;9.68;1.60;;;;;;;;;;5092058;28;20092;-72
2023/01/17 08:13:39;;;;;;;6.07;1.65;;;;;;;;;;5093684;28;20047;-73
2023/01/17 08:16:05;;;;;;;8.75;1.65;;;;;;;;;;5105138;28;20098;-73
2023/01/17 08:18:31;;;;;;;10.20;1.20;;;;;;;;;;5102864;28;20086;-73
2023/01/17 08:20:57;;;;;;;10.18;1.60;;;;;;;;;;5112474;28;20043;-73
2023/01/17 08:23:24;;;;;;;6.65;1.35;;;;;;;;;;5094372;28;20048;-73
2023/01/17 08:25:50;;;;;;;12.23;1.50;;;;;;;;;;5099875;28;20494;-73
2023/01/17 08:28:16;;;;;;;9.80;1.88;;;;;;;;;;5110720;28;20043;-74
2023/01/17 08:30:43;;;;;;;8.25;1.38;;;;;;;;;;5109406;28;20082;-71
2023/01/17 08:33:09;;;;;;;7.75;1.75;;;;;;;;;;5113654;28;20047;-71
2023/01/17 08:35:35;;;;;;;9.43;1.65;;;;;;;;;;5101620;27;20044;-72
2023/01/17 08:38:03;;;;;;;5.07;1.20;;;;;;;;;;5112464;27;20056;-73
2023/01/17 08:40:31;;;;;;;8.48;1.50;;;;;;;;;;5117840;27;20176;-72
2023/01/17 08:42:58;;;;;;;7.30;1.50;;;;;;;;;;5119311;27;20036;-73
2023/01/17 08:45:25;;;;;;;6.50;1.35;;;;;;;;;;5116998;27;20052;-73
2023/01/17 08:47:51;;;;;;;13.05;1.98;;;;;;;;;;5118965;27;20040;-73
2023/01/17 08:50:20;;;;;;;9.85;1.40;;;;;;;;;;5119202;27;20382;-73
2023/01/17 08:52:47;;;;;;;8.63;1.67;;;;;;;;;;5119309;27;20100;-73
2023/01/17 08:55:13;;;;;;;9.95;1.95;;;;;;;;;;5118185;27;20050;-72
2023/01/17 08:57:39;;;;;;;6.50;1.20;;;;;;;;;;5116792;27;20044;-73
2023/01/17 09:00:06;;;;;;;6.53;1.10;;;;;;;;;;5120621;27;20101;-72
2023/01/17 09:02:32;;;;;;;6.80;1.02;;;;;;;;;;5119206;27;20047;-73
2023/01/17 09:04:59;;;;;;;9.32;1.33;;;;;;;;;;5112246;27;20455;-73
2023/01/17 09:07:25;;;;;;;5.22;1.08;;;;;;;;;;5115721;27;20486;-72
2023/01/17 09:09:52;;;;;;;6.45;1.98;;;;;;;;;;5105010;27;20039;-72
2023/01/17 09:12:20;;;;;;;8.68;2.60;;;;;;;;;;5119001;27;20047;-72
2023/01/17 09:14:46;;;;;;;10.15;2.47;;;;;;;;;;5118856;27;20042;-72
2023/01/17 09:17:12;;;;;;;7.88;2.13;;;;;;;;;;5115893;27;20574;-72
2023/01/17 09:19:42;;;;;;;7.47;1.35;;;;;;;;;;5118750;27;20386;-73
2023/01/17 09:22:09;;;;;;;8.30;1.42;;;;;;;;;;5112670;27;20075;-74
2023/01/17 09:24:35;;;;;;;8.27;1.70;;;;;;;;;;5117381;28;20079;-72
2023/01/17 09:27:02;;;;;;;8.35;1.77;;;;;;;;;;5118759;27;20040;-72
2023/01/17 09:29:28;;;;;;;10.95;2.13;;;;;;;;;;5117200;27;20146;-72
2023/01/17 09:31:55;;;;;;;6.10;1.80;;;;;;;;;;5118543;27;20470;-73
2023/01/17 09:34:23;;;;;;;8.27;1.75;;;;;;;;;;5117390;28;20428;-74
2023/01/17 09:36:49;;;;;;;11.40;1.60;;;;;;;;;;5115043;27;20047;-74
2023/01/17 09:39:15;;;;;;;5.63;1.40;;;;;;;;;;5101300;27;20072;-72
2023/01/17 09:41:56;;;;;;;6.30;1.77;;;;;;;;;;5098181;27;20074;-73
2023/01/17 09:44:27;;;;;;;6.88;1.42;;;;;;;;;;5110309;27;20051;-72
2023/01/17 09:46:55;;;;;;;8.43;1.50;;;;;;;;;;5119012;27;20048;-72
2023/01/17 09:49:47;;;;;;;8.35;1.58;;;;;;;;;;5102211;27;20044;-70
2023/01/17 09:52:15;;;;;;;8.52;1.65;;;;;;;;;;5074620;28;20044;-73
2023/01/17 09:54:43;;;;;;;8.65;1.60;;;;;;;;;;5094591;28;20052;-73
2023/01/17 09:57:09;;;;;;;7.45;1.48;;;;;;;;;;5105503;28;20039;-73
2023/01/17 09:59:35;;;;;;;7.90;1.63;;;;;;;;;;5109870;27;20067;-72
2023/01/17 10:02:08;;;;;;;12.63;1.80;;;;;;;;;;5113483;28;20048;-73
2023/01/17 10:04:40;;;;;;;11.23;2.20;;;;;;;;;;5112469;28;20063;-72
2023/01/17 10:07:12;;;;;;;7.13;1.35;;;;;;;;;;5130669;27;20058;-72
2023/01/17 10:09:41;;;;;;;9.20;2.05;;;;;;;;;;5130823;27;20044;-72
2023/01/17 10:12:17;;;;;;;9.18;2.10;;;;;;;;;;5114914;28;20044;-73
2023/01/17 10:15:16;;;;;;;8.38;2.35;;;;;;;;;;5105362;28;20443;-73
2023/01/17 10:17:51;;;;;;;9.80;2.05;;;;;;;;;;5104792;27;20594;-72
2023/01/17 10:20:24;;;;;;;10.20;1.88;;;;;;;;;;5102438;28;20048;-73
2023/01/17 10:22:53;;;;;;;7.00;2.00;;;;;;;;;;5094609;28;20064;-74
2023/01/17 10:25:38;;;;;;;9.82;2.20;;;;;;;;;;5094384;28;20065;-74
2023/01/17 10:28:10;;;;;;;7.75;1.52;;;;;;;;;;5105989;28;20051;-72
2023/01/17 10:30:39;;;;;;;8.57;1.52;;;;;;;;;;5109318;28;20362;-73
2023/01/17 10:33:23;;;;;;;7.47;1.52;;;;;;;;;;5098171;27;20075;-72
2023/01/17 10:36:14;;;;;;;9.52;1.77;;;;;;;;;;5103201;28;20068;-72
2023/01/17 10:38:43;;;;;;;8.82;1.40;;;;;;;;;;5096119;28;20109;-72
2023/01/17 10:41:28;;;;;;;9.52;1.60;;;;;;;;;;5110273;28;20050;-72
2023/01/17 10:43:57;;;;;;;9.15;1.70;;;;;;;;;;5097617;28;20090;-72
2023/01/17 10:46:31;;;;;;;9.75;1.90;;;;;;;;;;5114100;28;20124;-72
2023/01/17 10:48:57;;;;;;;7.80;2.20;;;;;;;;;;5112027;27;20044;-69
2023/01/17 10:51:23;;;;;;;9.55;1.88;;;;;;;;;;5096370;28;20070;-72
2023/01/17 10:53:59;;;;;;;10.43;2.30;;;;;;;;;;5093880;28;20487;-72
2023/01/17 10:56:29;;;;;;;9.30;1.88;;;;;;;;;;5093161;28;20048;-72
2023/01/17 10:59:15;;;;;;;10.27;1.70;;;;;;;;;;5093180;28;20704;-72
2023/01/17 11:01:41;;;;;;;5.50;1.63;;;;;;;;;;5092168;28;20054;-72
2023/01/17 11:04:31;;;;;;;8.15;1.80;;;;;;;;;;5105746;28;20056;-73
2023/01/17 11:07:10;;;;;;;9.25;2.10;;;;;;;;;;5110872;28;20044;-73
2023/01/17 11:09:38;;;;;;;6.75;1.75;;;;;;;;;;5106702;28;20036;-73
2023/01/17 11:12:04;;;;;;;11.25;2.15;;;;;;;;;;5112042;28;20107;-71
2023/01/17 11:14:34;;;;;;;9.30;1.60;;;;;;;;;;5109569;27;20114;-73
2023/01/17 11:17:02;;;;;;;6.38;1.52;;;;;;;;;;5109138;27;20047;-77
2023/01/17 11:19:30;;;;;;;7.07;1.58;;;;;;;;;;5099932;27;20050;-75
2023/01/17 11:22:01;;;;;;;10.85;2.17;;;;;;;;;;5112976;27;20505;-73
2023/01/17 11:24:32;;;;;;;8.00;2.08;;;;;;;;;;5110047;28;20043;-73
2023/01/17 11:26:58;;;;;;;;;;;;;;;;;;5106426;27;20131;-74
2023/01/17 11:29:38;;;;;;;7.07;1.30;;;;;;;;;;5108242;28;20006;-73
2023/01/17 11:32:22;;;;;;;9.27;1.55;;;;;;;;;;5106814;28;20043;-73
2023/01/17 11:35:05;;;;;;;8.57;1.92;;;;;;;;;;5108518;28;20058;-72
2023/01/17 11:37:31;;;;;;;6.63;1.52;;;;;;;;;;5105488;27;20521;-73
2023/01/17 11:40:07;;;;;;;5.65;1.40;;;;;;;;;;5108821;28;20043;-73
2023/01/17 11:42:35;;;;;;;7.30;1.42;;;;;;;;;;5108537;28;20054;-73
2023/01/17 11:45:22;;;;;;;6.28;1.50;;;;;;;;;;5111103;28;20047;-73
2023/01/17 11:47:48;;;;;;;5.10;1.60;;;;;;;;;;5110111;28;20347;-73
2023/01/17 11:50:23;;;;;;;7.82;1.42;;;;;;;;;;5113359;28;20050;-73
2023/01/17 11:52:49;;;;;;;9.75;1.60;;;;;;;;;;5104938;27;20393;-73
2023/01/17 11:55:16;;;;;;;5.75;1.50;;;;;;;;;;5098741;28;20497;-73
2023/01/17 11:57:42;;;;;;;7.88;1.90;;;;;;;;;;5103202;28;21454;-73
2023/01/17 12:00:11;;;;;;;7.97;1.77;;;;;;;;;;5108034;27;20104;-74
2023/01/17 12:02:56;;;;;;;6.50;1.83;;;;;;;;;;5109707;28;21012;-74
2023/01/17 12:05:41;;;;;;;9.10;1.70;;;;;;;;;;5105592;28;20056;-75
2023/01/17 12:08:13;;;;;;;4.97;1.50;;;;;;;;;;5091372;28;20104;-71
2023/01/17 12:10:50;;;;;;;9.20;1.80;;;;;;;;;;5107066;28;20046;-74
2023/01/17 12:16:31;;;;;;;8.73;1.80;;;;;;;;;;5108276;28;20044;-71
2023/01/17 12:19:16;;;;;;;8.85;1.70;;;;;;;;;;5106397;28;20047;-72
2023/01/17 12:22:01;;;;;;;9.20;1.77;;;;;;;;;;5109828;28;20047;-71
2023/01/17 12:24:27;;;;;;;11.88;1.88;;;;;;;;;;5091134;28;20051;-71
2023/01/17 12:27:11;;;;;;;11.02;1.85;;;;;;;;;;5108442;28;20494;-71
2023/01/17 12:29:48;;;;;;;6.85;1.50;;;;;;;;;;5102118;28;20040;-71
2023/01/17 12:32:33;;;;;;;7.90;1.75;;;;;;;;;;5109287;28;20503;-74
2023/01/17 12:35:02;;;;;;;7.88;1.65;;;;;;;;;;5110817;28;20486;-74
2023/01/17 12:37:29;;;;;;;7.10;1.60;;;;;;;;;;5101097;28;20039;-74
2023/01/17 12:40:01;;;;;;;6.85;1.52;;;;;;;;;;5116720;28;20160;-72
2023/01/17 12:42:30;;;;;;;7.20;1.77;;;;;;;;;;5095407;28;20044;-73
2023/01/17 12:45:02;;;;;;;7.18;1.38;;;;;;;;;;5109776;28;20042;-72
2023/01/17 12:47:29;;;;;;;8.55;1.48;;;;;;;;;;5110261;28;20043;-72
2023/01/17 12:50:02;;;;;;;5.88;1.67;;;;;;;;;;5109590;28;20085;-72
2023/01/17 12:52:57;;;;;;;9.18;2.08;;;;;;;;;;5106544;28;20044;-72
2023/01/17 12:55:48;;;;;;;9.07;2.22;;;;;;;;;;5085571;28;20064;-73
2023/01/17 12:58:23;;;;;;;7.05;2.25;;;;;;;;;;5082141;28;20029;-72
2023/01/17 13:00:54;;;;;;;11.63;3.38;;;;;;;;;;5080546;28;20461;-73
2023/01/17 13:03:38;;;;;;;11.75;2.85;;;;;;;;;;5079110;28;20056;-73
2023/01/17 13:06:05;;;;;;;8.00;2.45;;;;;;;;;;5077993;28;20048;-73
2023/01/17 13:08:45;;;;;;;7.38;2.15;;;;;;;;;;5080789;28;20091;-74
2023/01/17 13:11:34;;;;;;;8.90;2.50;;;;;;;;;;5069336;28;20051;-73
2023/01/17 13:14:01;;;;;;;12.27;2.40;;;;;;;;;;5069832;28;20049;-74
2023/01/17 13:16:39;;;;;;;8.48;2.55;;;;;;;;;;5098038;28;20085;-74
2023/01/17 13:19:14;;;;;;;9.60;2.75;;;;;;;;;;5088373;28;20259;-74
2023/01/17 13:21:41;;;;;;;9.05;2.72;;;;;;;;;;5076052;28;20395;-71
2023/01/17 13:24:15;;;;;;;9.38;2.47;;;;;;;;;;5083649;28;20046;-74
2023/01/17 13:26:56;;;;;;;7.00;1.60;;;;;;;;;;5100926;28;20054;-73
2023/01/17 13:29:39;;;;;;;14.05;2.53;;;;;;;;;;5092858;28;20043;-74
2023/01/17 13:32:08;;;;;;;5.53;1.65;;;;;;;;;;5107091;28;20052;-73
2023/01/17 13:34:43;;;;;;;10.43;2.08;;;;;;;;;;5109841;27;20047;-71
2023/01/17 13:37:18;;;;;;;10.20;2.28;;;;;;;;;;5113030;28;20059;-72
2023/01/17 13:39:44;;;;;;;6.93;1.70;;;;;;;;;;5114268;28;20055;-73
2023/01/17 13:42:20;;;;;;;10.27;1.85;;;;;;;;;;5115005;28;20378;-73
2023/01/17 13:44:46;;;;;;;6.75;2.03;;;;;;;;;;5114469;28;20420;-73
2023/01/17 13:47:12;;;;;;;6.57;1.63;;;;;;;;;;5092927;28;20047;-73
2023/01/17 13:49:38;;;;;;;8.90;1.70;;;;;;;;;;5111382;27;20035;-73
2023/01/17 13:52:26;;;;;;;9.75;2.05;;;;;;;;;;5114399;28;20044;-72
2023/01/17 13:54:56;;;;;;;6.43;1.50;;;;;;;;;;5112743;27;20054;-73
2023/01/17 13:57:27;;;;;;;5.60;1.42;;;;;;;;;;5113031;28;20039;-73
2023/01/17 13:59:53;;;;;;;6.47;1.30;;;;;;;;;;5114274;28;20454;-73
2023/01/17 14:02:31;;;;;;;5.75;1.50;;;;;;;;;;5113467;28;20051;-73
2023/01/17 14:05:22;;;;;;;10.75;1.45;;;;;;;;;;5103051;27;20048;-72
2023/01/17 14:07:54;;;;;;;4.63;1.10;;;;;;;;;;5110120;28;20039;-74
2023/01/17 14:10:24;;;;;;;5.35;1.20;;;;;;;;;;5114469;28;20095;-74
2023/01/17 14:12:50;;;;;;;5.15;1.75;;;;;;;;;;5112374;28;20040;-74
2023/01/17 14:15:21;;;;;;;6.18;1.33;;;;;;;;;;5107670;28;20457;-74
2023/01/17 14:17:51;;;;;;;7.60;1.40;;;;;;;;;;5110138;28;20067;-72
2023/01/17 14:20:17;;;;;;;8.77;1.40;;;;;;;;;;5108786;27;20046;-72
2023/01/17 14:23:03;;;;;;;4.70;1.23;;;;;;;;;;5110845;28;20035;-73
2023/01/17 14:25:37;;;;;;;6.10;1.38;;;;;;;;;;5114384;28;20160;-73
2023/01/17 14:28:05;;;;;;;8.40;1.40;;;;;;;;;;5114641;27;20050;-73
2023/01/17 14:30:31;;;;;;;5.40;1.30;;;;;;;;;;5113653;28;20052;-72
2023/01/17 14:32:57;;;;;;;8.52;1.40;;;;;;;;;;5113678;28;20095;-72
2023/01/17 14:35:25;;;;;;;6.88;1.25;;;;;;;;;;5109452;28;20048;-73
2023/01/17 14:37:52;;;;;;;7.07;1.40;;;;;;;;;;5093420;28;20052;-72
2023/01/17 14:40:26;;;;;;;5.85;1.13;;;;;;;;;;5093854;28;20056;-72
2023/01/17 14:43:11;;;;;;;7.75;1.40;;;;;;;;;;5096773;28;20039;-72
2023/01/17 14:45:38;;;;;;;5.18;1.20;;;;;;;;;;5113948;28;20066;-72
2023/01/17 14:48:05;;;;;;;7.82;1.42;;;;;;;;;;5113790;28;20039;-73
2023/01/17 14:50:36;;;;;;;7.25;1.60;;;;;;;;;;5114010;28;20047;-73
2023/01/17 14:53:11;;;;;;;6.20;1.73;;;;;;;;;;5125863;27;20055;-73
2023/01/17 14:55:38;;;;;;;6.00;1.60;;;;;;;;;;5134365;27;20039;-73
2023/01/17 14:58:04;;;;;;;9.82;1.80;;;;;;;;;;5120825;27;20478;-73
2023/01/17 15:00:33;;;;;;;6.85;1.58;;;;;;;;;;5113756;28;20051;-72
2023/01/17 15:03:00;;;;;;;7.93;1.67;;;;;;;;;;5108775;28;20059;-72
2023/01/17 15:05:27;;;;;;;8.02;1.60;;;;;;;;;;5112167;28;20062;-72
2023/01/17 15:07:55;;;;;;;11.43;2.15;;;;;;;;;;5111357;28;20132;-72
2023/01/17 15:10:29;;;;;;;9.57;1.75;;;;;;;;;;5109109;28;20051;-73
2023/01/17 15:12:56;;;;;;;7.78;2.20;;;;;;;;;;5093513;28;20058;-72
2023/01/17 15:15:30;;;;;;;7.40;1.70;;;;;;;;;;5094858;28;20055;-72
2023/01/17 15:18:18;;;;;;;10.60;2.03;;;;;;;;;;5111062;28;20082;-72
2023/01/17 15:21:00;;;;;;;6.47;1.80;;;;;;;;;;5091997;28;20082;-73
2023/01/17 15:23:34;;;;;;;5.30;1.45;;;;;;;;;;5093442;28;20059;-73
2023/01/17 15:26:02;;;;;;;6.40;1.95;;;;;;;;;;5094425;28;20051;-72
2023/01/17 15:28:28;;;;;;;6.45;2.03;;;;;;;;;;5133953;27;20501;-73
2023/01/17 15:31:00;;;;;;;6.68;2.47;;;;;;;;;;5115569;27;20579;-72
2023/01/17 15:33:26;;;;;;;6.68;1.92;;;;;;;;;;5112797;28;20404;-73
2023/01/17 15:36:00;;;;;;;8.32;2.20;;;;;;;;;;5107039;28;20055;-72
2023/01/17 15:38:26;;;;;;;6.85;1.65;;;;;;;;;;5093736;28;20048;-72
2023/01/17 15:40:52;;;;;;;9.27;2.13;;;;;;;;;;5117505;27;20520;-72
2023/01/17 15:43:20;;;;;;;6.93;3.35;;;;;;;;;;5131913;27;20075;-72
2023/01/17 15:45:56;;;;;;;7.90;2.85;;;;;;;;;;5092976;28;20044;-73
2023/01/17 15:48:43;;;;;;;8.32;3.22;;;;;;;;;;5105348;28;20525;-72
2023/01/17 15:51:10;;;;;;;9.65;2.58;;;;;;;;;;5108569;28;20105;-73
2023/01/17 15:53:38;;;;;;;9.20;2.88;;;;;;;;;;5092958;28;20056;-72
2023/01/17 15:56:20;;;;;;;9.52;2.88;;;;;;;;;;5092815;28;20043;-72
2023/01/17 15:58:48;;;;;;;8.07;1.77;;;;;;;;;;5097794;28;20048;-72
2023/01/17 16:01:16;;;;;;;7.75;1.92;;;;;;;;;;5112983;28;20451;-72
2023/01/17 16:03:51;;;;;;;8.25;2.13;;;;;;;;;;5110935;28;20047;-72
2023/01/17 16:06:44;;;;;;;9.15;2.10;;;;;;;;;;5111639;28;20047;-72
2023/01/17 16:09:23;;;;;;;11.63;2.70;;;;;;;;;;5113402;28;20052;-72
2023/01/17 16:11:49;;;;;;;9.40;2.88;;;;;;;;;;5113380;28;20165;-73
2023/01/17 16:14:16;;;;;;;11.30;2.60;;;;;;;;;;5113288;28;20044;-73
2023/01/17 16:16:52;;;;;;;6.93;2.00;;;;;;;;;;5113412;28;20100;-72
2023/01/17 16:19:20;;;;;;;7.47;1.70;;;;;;;;;;5117903;27;20517;-73
2023/01/17 16:21:47;;;;;;;8.60;1.92;;;;;;;;;;5111159;28;20044;-72